Time;durP1;ratioP1;P1;durP2;ratioP2;P2;SDS_P1;SDS_P2;PMS_P1;PMS_P2;Temp;Humidity;BMP_temperature;BMP_pressure;BME280_temperature;BME280_humidity;BME280_pressure;Samples;Min_cycle;Max_cycle;Signal;HPM_P1;HPM_P2
2022/09/14 00:00:12;0.00;0.00;0.62;0.00;0.00;0.62;2.00;1.30;;;27.20;34.30;;;;;;2249031;61;20416;-66
2022/09/14 00:02:58;0.00;0.00;0.62;0.00;0.00;0.62;2.57;1.23;;;27.20;34.30;;;;;;2249683;61;20464;-69
2022/09/14 00:05:43;0.00;0.00;0.62;0.00;0.00;0.62;2.53;1.40;;;27.20;34.30;;;;;;2249010;61;20356;-67
2022/09/14 00:08:29;0.00;0.00;0.62;0.00;0.00;0.62;1.80;1.10;;;27.20;34.40;;;;;;2249351;61;20408;-64
2022/09/14 00:11:14;0.00;0.00;0.62;0.00;0.00;0.62;1.90;1.20;;;27.20;34.30;;;;;;2249592;61;20428;-65
2022/09/14 00:14:01;0.00;0.00;0.62;0.00;0.00;0.62;2.03;1.30;;;27.20;34.30;;;;;;2248624;61;20573;-67
2022/09/14 00:16:46;0.00;0.00;0.62;0.00;0.00;0.62;2.80;1.20;;;27.20;34.30;;;;;;2249483;61;20408;-65
2022/09/14 00:19:30;0.00;0.00;0.62;0.00;0.00;0.62;2.23;1.10;;;27.20;34.30;;;;;;2249270;61;20376;-69
2022/09/14 00:22:16;0.00;0.00;0.62;0.00;0.00;0.62;2.43;1.10;;;27.20;34.30;;;;;;2248606;61;20480;-64
2022/09/14 00:25:03;0.00;0.00;0.62;0.00;0.00;0.62;3.00;1.70;;;27.20;34.30;;;;;;2249737;61;20377;-65
2022/09/14 00:27:48;0.00;0.00;0.62;0.00;0.00;0.62;1.90;0.90;;;27.20;34.30;;;;;;2248988;61;20361;-65
2022/09/14 00:30:32;0.00;0.00;0.62;0.00;0.00;0.62;2.67;1.20;;;27.20;34.20;;;;;;2249174;61;20400;-65
2022/09/14 00:33:17;0.00;0.00;0.62;0.00;0.00;0.62;1.73;1.10;;;27.20;34.20;;;;;;2249678;61;20400;-64
2022/09/14 00:36:08;0.00;0.00;0.62;0.00;0.00;0.62;1.83;1.27;;;27.20;34.20;;;;;;2248537;61;20367;-65
2022/09/14 00:38:55;0.00;0.00;0.62;0.00;0.00;0.62;2.63;1.20;;;27.20;34.20;;;;;;2249443;61;20361;-65
2022/09/14 00:41:45;0.00;0.00;0.62;0.00;0.00;0.62;2.87;1.30;;;27.20;34.20;;;;;;2249048;61;20440;-66
2022/09/14 00:45:01;0.00;0.00;0.62;0.00;0.00;0.62;2.87;1.37;;;27.20;34.00;;;;;;2248733;61;20493;-65
2022/09/14 00:47:49;0.00;0.00;0.62;0.00;0.00;0.62;1.70;1.13;;;27.20;33.60;;;;;;2249905;61;20409;-64
2022/09/14 00:50:34;0.00;0.00;0.62;0.00;0.00;0.62;4.77;1.53;;;27.20;33.20;;;;;;2248705;61;20772;-63
2022/09/14 00:53:19;0.00;0.00;0.62;0.00;0.00;0.62;2.90;1.37;;;27.10;33.20;;;;;;2249276;61;20651;-64
2022/09/14 00:56:04;0.00;0.00;0.62;0.00;0.00;0.62;3.30;1.40;;;27.00;32.30;;;;;;2249465;61;20904;-63
2022/09/14 00:58:53;0.00;0.00;0.62;0.00;0.00;0.62;3.77;1.77;;;27.00;32.40;;;;;;2248879;61;20396;-64
2022/09/14 01:01:37;0.00;0.00;0.62;0.00;0.00;0.62;4.53;1.80;;;26.90;33.00;;;;;;2249448;61;20385;-62
2022/09/14 01:04:23;0.00;0.00;0.62;0.00;0.00;0.62;2.97;1.57;;;26.90;32.20;;;;;;2248753;61;20360;-63
2022/09/14 01:07:19;0.00;0.00;0.62;0.00;0.00;0.62;4.60;1.87;;;26.80;32.00;;;;;;2249082;61;20360;-65
2022/09/14 01:10:22;0.00;0.00;0.62;0.00;0.00;0.62;2.23;1.83;;;26.70;32.10;;;;;;2249572;61;20440;-65
2022/09/14 01:13:21;0.00;0.00;0.62;0.00;0.00;0.62;2.43;1.30;;;26.70;32.40;;;;;;2248367;61;20372;-65
2022/09/14 01:16:18;0.00;0.00;0.62;0.00;0.00;0.62;2.23;1.50;;;26.60;32.50;;;;;;2249442;61;20363;-65
2022/09/14 01:19:09;0.00;0.00;0.62;0.00;0.00;0.62;3.33;1.30;;;26.60;32.70;;;;;;2249090;61;20370;-66
2022/09/14 01:22:00;0.00;0.00;0.62;0.00;0.00;0.62;3.10;1.20;;;26.60;32.90;;;;;;2248684;61;20428;-65
2022/09/14 01:24:50;0.00;0.00;0.62;0.00;0.00;0.62;3.90;1.40;;;26.60;32.90;;;;;;2249607;61;20360;-65
2022/09/14 01:27:40;0.00;0.00;0.62;0.00;0.00;0.62;5.00;2.23;;;26.60;32.80;;;;;;2248844;61;20364;-66
2022/09/14 01:30:25;0.00;0.00;0.62;0.00;0.00;0.62;8.20;1.90;;;26.60;32.80;;;;;;2249337;61;20606;-66
2022/09/14 01:33:17;0.00;0.00;0.62;0.00;0.00;0.62;4.70;1.60;;;26.50;32.60;;;;;;2249482;61;20376;-65
2022/09/14 01:36:05;0.00;0.00;0.62;0.00;0.00;0.62;3.80;1.90;;;26.50;32.50;;;;;;2248430;61;20360;-64
2022/09/14 01:38:52;0.00;0.00;0.62;0.00;0.00;0.62;3.70;1.67;;;26.50;32.50;;;;;;2249640;61;20381;-63
2022/09/14 01:41:41;0.00;0.00;0.62;0.00;0.00;0.62;2.90;1.40;;;26.40;32.40;;;;;;2248478;61;20381;-64
2022/09/14 01:44:31;0.00;0.00;0.62;0.00;0.00;0.62;2.80;1.30;;;26.30;32.30;;;;;;2249028;61;20408;-64
2022/09/14 01:47:22;0.00;0.00;0.62;0.00;0.00;0.62;2.50;1.60;;;26.30;32.40;;;;;;2249284;61;20365;-65
2022/09/14 01:50:12;0.00;0.00;0.62;0.00;0.00;0.62;5.10;1.60;;;26.20;32.40;;;;;;2248203;61;20356;-66
2022/09/14 01:53:04;0.00;0.00;0.62;0.00;0.00;0.62;2.90;1.63;;;26.20;32.60;;;;;;2249078;61;20372;-64
2022/09/14 01:55:57;0.00;0.00;0.62;0.00;0.00;0.62;2.70;1.33;;;26.20;32.80;;;;;;2249084;61;20433;-66
2022/09/14 01:58:47;0.00;0.00;0.62;0.00;0.00;0.62;4.10;1.20;;;26.20;32.80;;;;;;2255960;61;20719;-66
2022/09/14 02:01:40;0.00;0.00;0.62;0.00;0.00;0.62;1.83;1.00;;;26.20;33.60;;;;;;2256357;61;20468;-66
2022/09/14 02:04:34;0.00;0.00;0.62;0.00;0.00;0.62;2.40;1.53;;;26.20;33.10;;;;;;2247164;61;20426;-64
2022/09/14 02:07:19;0.00;0.00;0.62;0.00;0.00;0.62;3.00;1.40;;;26.20;32.90;;;;;;2253876;61;20630;-66
2022/09/14 02:10:08;0.00;0.00;0.62;0.00;0.00;0.62;2.73;1.20;;;26.20;32.70;;;;;;2254129;61;20360;-64
2022/09/14 02:12:54;0.00;0.00;0.62;0.00;0.00;0.62;3.00;1.90;;;26.10;32.50;;;;;;2253516;61;20379;-64
2022/09/14 02:15:39;0.00;0.00;0.62;0.00;0.00;0.62;5.80;1.87;;;26.10;32.30;;;;;;2253999;61;20352;-63
2022/09/14 02:18:26;0.00;0.00;0.62;0.00;0.00;0.62;5.93;1.90;;;26.00;32.10;;;;;;2253300;61;20754;-65
2022/09/14 02:21:15;0.00;0.00;0.62;0.00;0.00;0.62;2.10;1.40;;;25.90;32.00;;;;;;2253124;61;20387;-66
2022/09/14 02:24:01;0.00;0.00;0.62;0.00;0.00;0.62;2.57;1.30;;;25.80;32.20;;;;;;2254130;61;20428;-64
2022/09/14 02:26:50;0.00;0.00;0.62;0.00;0.00;0.62;2.60;1.53;;;25.70;32.30;;;;;;2253345;61;20360;-63
2022/09/14 02:29:35;0.00;0.00;0.62;0.00;0.00;0.62;3.70;1.60;;;25.70;32.50;;;;;;2253818;61;20364;-66
2022/09/14 02:32:32;0.00;0.00;0.62;0.00;0.00;0.62;3.10;1.67;;;25.70;32.60;;;;;;2253889;61;20375;-64
2022/09/14 02:35:25;0.00;0.00;0.62;0.00;0.00;0.62;4.67;1.40;;;25.60;32.60;;;;;;2252908;61;20388;-65
2022/09/14 02:38:19;0.00;0.00;0.62;0.00;0.00;0.62;3.87;1.83;;;25.60;32.70;;;;;;2253873;61;20364;-65
2022/09/14 02:41:14;0.00;0.00;0.62;0.00;0.00;0.62;5.63;1.43;;;25.60;32.70;;;;;;2252957;61;20395;-65
2022/09/14 02:44:10;0.00;0.00;0.62;0.00;0.00;0.62;3.03;1.90;;;25.50;32.70;;;;;;2253757;61;20396;-64
2022/09/14 02:47:02;0.00;0.00;0.62;0.00;0.00;0.62;3.43;1.53;;;25.50;32.70;;;;;;2254057;61;20472;-66
2022/09/14 02:49:56;0.00;0.00;0.62;0.00;0.00;0.62;3.10;1.40;;;25.40;32.60;;;;;;2253237;61;20359;-66
2022/09/14 02:52:51;0.00;0.00;0.62;0.00;0.00;0.62;3.53;1.40;;;25.40;32.50;;;;;;2253634;61;20705;-66
2022/09/14 02:55:41;0.00;0.00;0.62;0.00;0.00;0.62;2.17;1.33;;;25.30;32.50;;;;;;2253131;61;20356;-66
2022/09/14 02:58:35;0.00;0.00;0.62;0.00;0.00;0.62;4.57;1.50;;;25.20;32.50;;;;;;2253293;61;20356;-65
2022/09/14 03:01:22;0.00;0.00;0.62;0.00;0.00;0.62;1.80;1.13;;;25.20;32.70;;;;;;2253905;61;20458;-67
2022/09/14 03:04:07;0.00;0.00;0.62;0.00;0.00;0.62;3.17;1.10;;;25.20;32.90;;;;;;2255713;61;20416;-64
2022/09/14 03:06:52;0.00;0.00;0.62;0.00;0.00;0.62;2.40;1.10;;;25.20;33.00;;;;;;2253831;61;20558;-64
2022/09/14 03:09:38;0.00;0.00;0.62;0.00;0.00;0.62;3.20;1.23;;;25.20;33.10;;;;;;2253807;61;20364;-66
2022/09/14 03:12:22;0.00;0.00;0.62;0.00;0.00;0.62;2.13;1.20;;;25.20;33.00;;;;;;2252596;61;20741;-64
2022/09/14 03:15:08;0.00;0.00;0.62;0.00;0.00;0.62;2.70;1.30;;;25.10;32.90;;;;;;2253791;61;20402;-65
2022/09/14 03:17:54;0.00;0.00;0.62;0.00;0.00;0.62;4.37;1.90;;;25.10;32.80;;;;;;2253002;61;20418;-64
2022/09/14 03:20:39;0.00;0.00;0.62;0.00;0.00;0.62;4.80;1.90;;;25.10;32.80;;;;;;2253193;61;20400;-64
2022/09/14 03:23:24;0.00;0.00;0.62;0.00;0.00;0.62;4.50;1.50;;;25.00;32.70;;;;;;2254040;61;20380;-63
2022/09/14 03:26:12;0.00;0.00;0.62;0.00;0.00;0.62;4.23;1.70;;;25.00;32.80;;;;;;2252895;61;20395;-65
2022/09/14 03:28:58;0.00;0.00;0.62;0.00;0.00;0.62;3.70;1.40;;;25.00;32.90;;;;;;2253733;61;20368;-67
2022/09/14 03:31:43;0.00;0.00;0.62;0.00;0.00;0.62;2.50;1.37;;;24.90;32.90;;;;;;2253604;61;20363;-64
2022/09/14 03:34:28;0.00;0.00;0.62;0.00;0.00;0.62;2.90;1.30;;;24.90;33.00;;;;;;2252797;61;20359;-67
2022/09/14 03:37:13;0.00;0.00;0.62;0.00;0.00;0.62;3.40;1.20;;;24.90;33.10;;;;;;2253927;61;20359;-69
2022/09/14 03:39:58;0.00;0.00;0.62;0.00;0.00;0.62;2.07;1.40;;;24.90;33.20;;;;;;2253142;61;20428;-64
2022/09/14 03:42:46;0.00;0.00;0.62;0.00;0.00;0.62;1.53;1.00;;;25.00;33.40;;;;;;2252835;61;20809;-66
2022/09/14 03:45:31;0.00;0.00;0.62;0.00;0.00;0.62;1.93;1.10;;;24.90;33.30;;;;;;2254074;61;20412;-66
2022/09/14 03:48:15;0.00;0.00;0.62;0.00;0.00;0.62;2.10;1.20;;;24.90;33.40;;;;;;2253063;61;20395;-65
2022/09/14 03:51:01;0.00;0.00;0.62;0.00;0.00;0.62;3.37;1.50;;;25.00;33.40;;;;;;2253389;61;20359;-64
2022/09/14 03:53:46;0.00;0.00;0.62;0.00;0.00;0.62;2.37;1.10;;;25.00;33.40;;;;;;2253783;61;20661;-63
2022/09/14 03:56:31;0.00;0.00;0.62;0.00;0.00;0.62;2.27;1.20;;;25.00;33.40;;;;;;2252895;61;20375;-65
2022/09/14 03:59:17;0.00;0.00;0.62;0.00;0.00;0.62;2.10;1.20;;;25.00;33.40;;;;;;2253319;61;20655;-65
2022/09/14 04:02:02;0.00;0.00;0.62;0.00;0.00;0.62;2.20;1.17;;;25.00;33.40;;;;;;2252731;61;20870;-65
2022/09/14 04:04:47;0.00;0.00;0.62;0.00;0.00;0.62;2.43;1.20;;;25.00;33.40;;;;;;2356540;53;20376;-67
2022/09/14 04:07:32;0.00;0.00;0.62;0.00;0.00;0.62;1.90;1.33;;;25.00;33.40;;;;;;2249780;61;20392;-64
2022/09/14 04:10:17;0.00;0.00;0.62;0.00;0.00;0.62;2.67;1.40;;;25.10;33.50;;;;;;2250308;61;20411;-63
2022/09/14 04:13:01;0.00;0.00;0.62;0.00;0.00;0.62;2.00;1.13;;;25.10;33.50;;;;;;2253438;61;20391;-64
2022/09/14 04:15:57;0.00;0.00;0.62;0.00;0.00;0.62;3.03;1.40;;;25.10;33.50;;;;;;2253751;61;20624;-64
2022/09/14 04:18:43;0.00;0.00;0.62;0.00;0.00;0.62;2.20;1.10;;;25.10;33.50;;;;;;2252971;61;20368;-65
2022/09/14 04:21:27;0.00;0.00;0.62;0.00;0.00;0.62;3.40;1.60;;;25.10;33.40;;;;;;2253619;61;20379;-63
2022/09/14 04:24:12;0.00;0.00;0.62;0.00;0.00;0.62;2.67;1.40;;;25.10;33.30;;;;;;2252816;61;20746;-64
2022/09/14 04:26:57;0.00;0.00;0.62;0.00;0.00;0.62;4.87;1.50;;;25.10;33.30;;;;;;2253148;61;20581;-63
2022/09/14 04:29:41;0.00;0.00;0.62;0.00;0.00;0.62;2.40;1.50;;;25.10;33.30;;;;;;2253800;61;20356;-64
2022/09/14 04:32:27;0.00;0.00;0.62;0.00;0.00;0.62;3.43;1.47;;;25.10;33.30;;;;;;2252721;61;20407;-67
2022/09/14 04:35:12;0.00;0.00;0.62;0.00;0.00;0.62;2.87;1.20;;;25.10;33.30;;;;;;2253299;61;20360;-66
2022/09/14 04:37:57;0.00;0.00;0.62;0.00;0.00;0.62;1.80;1.40;;;25.10;33.40;;;;;;2253685;61;20380;-65
2022/09/14 04:40:42;0.00;0.00;0.62;0.00;0.00;0.62;2.60;1.30;;;25.10;33.40;;;;;;2252991;61;20380;-65
2022/09/14 04:43:27;0.00;0.00;0.62;0.00;0.00;0.62;2.13;1.07;;;25.10;33.40;;;;;;2253575;61;20633;-67
2022/09/14 04:46:14;0.00;0.00;0.62;0.00;0.00;0.62;2.47;1.20;;;25.10;33.40;;;;;;2253407;61;20407;-64
2022/09/14 04:49:01;0.00;0.00;0.62;0.00;0.00;0.62;3.30;1.60;;;25.10;33.40;;;;;;2252996;61;20428;-66
2022/09/14 04:51:46;0.00;0.00;0.62;0.00;0.00;0.62;2.17;1.40;;;25.20;33.40;;;;;;2253409;61;20539;-65
2022/09/14 04:54:31;0.00;0.00;0.62;0.00;0.00;0.62;2.90;1.50;;;25.20;33.40;;;;;;2252783;61;20375;-64
2022/09/14 04:57:15;0.00;0.00;0.62;0.00;0.00;0.62;2.47;1.70;;;25.10;33.30;;;;;;2253012;61;20436;-63
2022/09/14 05:00:00;0.00;0.00;0.62;0.00;0.00;0.62;2.83;1.50;;;25.10;33.20;;;;;;2253700;61;20363;-65
2022/09/14 05:02:45;0.00;0.00;0.62;0.00;0.00;0.62;2.43;1.57;;;25.10;33.30;;;;;;2251172;61;20784;-66
2022/09/14 05:05:35;0.00;0.00;0.62;0.00;0.00;0.62;3.00;1.53;;;25.10;33.30;;;;;;2249396;61;20396;-65
2022/09/14 05:08:20;0.00;0.00;0.62;0.00;0.00;0.62;2.90;1.80;;;25.10;33.30;;;;;;2249338;61;20551;-64
2022/09/14 05:11:06;0.00;0.00;0.62;0.00;0.00;0.62;3.40;1.73;;;25.10;33.40;;;;;;2248775;61;20419;-65
2022/09/14 05:13:51;0.00;0.00;0.62;0.00;0.00;0.62;2.70;1.43;;;25.20;33.40;;;;;;2249563;61;20468;-64
2022/09/14 05:16:38;0.00;0.00;0.62;0.00;0.00;0.62;3.03;2.23;;;25.10;33.30;;;;;;2248725;61;20416;-64
2022/09/14 05:19:22;0.00;0.00;0.62;0.00;0.00;0.62;3.40;1.70;;;25.20;33.40;;;;;;2248888;61;20391;-66
2022/09/14 05:22:08;0.00;0.00;0.62;0.00;0.00;0.62;2.10;1.47;;;25.20;33.40;;;;;;2249566;61;20391;-66
2022/09/14 05:24:53;0.00;0.00;0.62;0.00;0.00;0.62;3.80;1.70;;;25.20;33.40;;;;;;2248514;61;20987;-64
2022/09/14 05:27:37;0.00;0.00;0.62;0.00;0.00;0.62;2.30;1.50;;;25.20;33.40;;;;;;2249428;61;20352;-64
2022/09/14 05:30:22;0.00;0.00;0.62;0.00;0.00;0.62;3.67;1.73;;;25.20;33.40;;;;;;2249420;61;20356;-63
2022/09/14 05:33:07;0.00;0.00;0.62;0.00;0.00;0.62;1.93;1.63;;;25.20;33.40;;;;;;2245190;61;20456;-65
2022/09/14 05:35:51;0.00;0.00;0.62;0.00;0.00;0.62;2.90;2.00;;;25.20;33.40;;;;;;2249667;61;20356;-65
2022/09/14 05:38:38;0.00;0.00;0.62;0.00;0.00;0.62;2.80;2.00;;;25.20;33.40;;;;;;2249492;61;20396;-66
2022/09/14 05:41:23;0.00;0.00;0.62;0.00;0.00;0.62;3.50;2.00;;;25.20;33.20;;;;;;2249285;61;20388;-67
2022/09/14 05:44:08;0.00;0.00;0.62;0.00;0.00;0.62;4.57;2.90;;;25.20;33.10;;;;;;2250366;61;20424;-66
2022/09/14 05:46:53;0.00;0.00;0.62;0.00;0.00;0.62;3.33;2.33;;;25.10;33.10;;;;;;2249165;61;20356;-63
2022/09/14 05:49:37;0.00;0.00;0.62;0.00;0.00;0.62;3.43;1.93;;;25.10;33.20;;;;;;2250037;61;20364;-65
2022/09/14 05:52:22;0.00;0.00;0.62;0.00;0.00;0.62;3.80;1.90;;;25.10;33.20;;;;;;2249869;61;20376;-66
2022/09/14 05:55:09;0.00;0.00;0.62;0.00;0.00;0.62;3.13;1.70;;;25.10;33.20;;;;;;2248886;61;20407;-67
2022/09/14 05:57:54;0.00;0.00;0.62;0.00;0.00;0.62;4.10;1.93;;;25.10;33.30;;;;;;2250335;61;20440;-65
2022/09/14 06:00:38;0.00;0.00;0.62;0.00;0.00;0.62;3.10;2.40;;;25.10;33.30;;;;;;2249366;61;20376;-66
2022/09/14 06:03:24;0.00;0.00;0.62;0.00;0.00;0.62;2.83;1.87;;;25.10;33.30;;;;;;2250649;61;20455;-63
2022/09/14 06:06:13;0.00;0.00;0.62;0.00;0.00;0.62;3.60;2.03;;;25.10;33.20;;;;;;2252352;61;20364;-66
2022/09/14 06:08:58;0.00;0.00;0.62;0.00;0.00;0.62;3.00;1.90;;;25.00;33.10;;;;;;2249598;61;20372;-67
2022/09/14 06:11:44;0.00;0.00;0.62;0.00;0.00;0.62;5.03;2.33;;;25.00;33.10;;;;;;2250043;61;20380;-65
2022/09/14 06:14:29;0.00;0.00;0.62;0.00;0.00;0.62;2.57;1.90;;;25.00;33.20;;;;;;2250174;61;20344;-64
2022/09/14 06:17:14;0.00;0.00;0.62;0.00;0.00;0.62;4.63;2.37;;;25.00;33.30;;;;;;2249350;61;20368;-64
2022/09/14 06:19:58;0.00;0.00;0.62;0.00;0.00;0.62;4.13;2.53;;;25.00;33.30;;;;;;2479042;53;20729;-64
2022/09/14 06:22:43;0.00;0.00;0.62;0.00;0.00;0.62;3.57;2.00;;;25.00;33.30;;;;;;2245261;61;20817;-62
2022/09/14 06:25:28;0.00;0.00;0.62;0.00;0.00;0.62;2.70;1.63;;;25.00;33.30;;;;;;2245663;61;20405;-65
2022/09/14 06:28:14;0.00;0.00;0.62;0.00;0.00;0.62;3.10;2.07;;;25.00;33.40;;;;;;2246285;61;20369;-64
2022/09/14 06:30:59;0.00;0.00;0.62;0.00;0.00;0.62;6.30;2.43;;;24.90;33.20;;;;;;2245223;61;20361;-66
2022/09/14 06:33:45;0.00;0.00;0.62;0.00;0.00;0.62;5.30;2.40;;;24.90;33.30;;;;;;2245901;61;20428;-64
2022/09/14 06:36:30;0.00;0.00;0.62;0.00;0.00;0.62;4.70;2.03;;;24.90;33.00;;;;;;2245947;61;20586;-66
2022/09/14 06:39:15;0.00;0.00;0.62;0.00;0.00;0.62;3.43;1.73;;;24.90;33.00;;;;;;2245351;61;20364;-66
2022/09/14 06:42:00;0.00;0.00;0.62;0.00;0.00;0.62;6.47;2.30;;;24.80;33.00;;;;;;2245651;61;20820;-67
2022/09/14 06:44:48;0.00;0.00;0.62;0.00;0.00;0.62;8.07;1.80;;;24.80;33.00;;;;;;2242256;61;20369;-66
2022/09/14 06:47:33;0.00;0.00;0.62;0.00;0.00;0.62;3.50;1.60;;;24.70;33.00;;;;;;2245660;61;20366;-63
2022/09/14 06:50:18;0.00;0.00;0.62;0.00;0.00;0.62;4.67;2.03;;;24.70;33.20;;;;;;2245936;61;20358;-67
2022/09/14 06:53:02;0.00;0.00;0.62;0.00;0.00;0.62;7.17;2.40;;;24.70;33.20;;;;;;2245112;61;20733;-63
2022/09/14 06:55:47;0.00;0.00;0.62;0.00;0.00;0.62;6.40;2.43;;;24.70;33.30;;;;;;2245608;61;20634;-66
2022/09/14 06:58:33;0.00;0.00;0.62;0.00;0.00;0.62;3.57;2.00;;;24.70;33.40;;;;;;2245994;61;20349;-65
2022/09/14 07:01:20;0.00;0.00;0.62;0.00;0.00;0.62;2.83;1.70;;;24.70;33.40;;;;;;2244902;61;20366;-64
2022/09/14 07:04:06;0.00;0.00;0.62;0.00;0.00;0.62;4.63;2.40;;;24.70;33.40;;;;;;2249310;61;20423;-62
2022/09/14 07:06:52;0.00;0.00;0.62;0.00;0.00;0.62;2.50;1.40;;;24.70;33.40;;;;;;2249785;61;20368;-66
2022/09/14 07:09:36;0.00;0.00;0.62;0.00;0.00;0.62;2.97;1.67;;;24.70;33.50;;;;;;2248635;61;20361;-67
2022/09/14 07:12:21;0.00;0.00;0.62;0.00;0.00;0.62;3.67;1.47;;;24.80;33.60;;;;;;2249843;61;20384;-65
2022/09/14 07:15:08;0.00;0.00;0.62;0.00;0.00;0.62;3.60;1.70;;;24.80;33.70;;;;;;2249187;61;20357;-67
2022/09/14 07:17:54;0.00;0.00;0.62;0.00;0.00;0.62;4.03;1.80;;;24.80;33.70;;;;;;2246470;61;20381;-65
2022/09/14 07:20:39;0.00;0.00;0.62;0.00;0.00;0.62;2.10;1.40;;;24.80;33.70;;;;;;2246049;61;20361;-67
2022/09/14 07:23:24;0.00;0.00;0.62;0.00;0.00;0.62;1.80;1.40;;;24.80;33.70;;;;;;2244979;61;20621;-68
2022/09/14 07:26:11;0.00;0.00;0.62;0.00;0.00;0.62;2.63;1.80;;;24.90;33.80;;;;;;2245922;61;20627;-64
2022/09/14 07:29:00;0.00;0.00;0.62;0.00;0.00;0.62;3.03;1.50;;;24.90;33.80;;;;;;2245754;61;20353;-68
2022/09/14 07:31:48;0.00;0.00;0.62;0.00;0.00;0.62;2.57;1.60;;;24.90;33.80;;;;;;2245115;61;20354;-66
2022/09/14 07:34:34;0.00;0.00;0.62;0.00;0.00;0.62;4.17;2.00;;;24.90;33.80;;;;;;2245996;61;20361;-66
2022/09/14 07:37:19;0.00;0.00;0.62;0.00;0.00;0.62;3.83;1.67;;;24.90;33.70;;;;;;2245234;61;20483;-67
2022/09/14 07:40:05;0.00;0.00;0.62;0.00;0.00;0.62;4.23;2.50;;;24.90;33.70;;;;;;2245445;61;20440;-63
2022/09/14 07:42:51;0.00;0.00;0.62;0.00;0.00;0.62;3.80;1.70;;;24.90;33.60;;;;;;2245815;61;20437;-65
2022/09/14 07:45:37;0.00;0.00;0.62;0.00;0.00;0.62;3.03;1.27;;;24.90;33.70;;;;;;2244975;61;20366;-62
2022/09/14 07:48:22;0.00;0.00;0.62;0.00;0.00;0.62;2.23;1.63;;;25.00;33.90;;;;;;2245769;61;20365;-63
2022/09/14 07:51:10;0.00;0.00;0.62;0.00;0.00;0.62;3.60;1.90;;;25.00;33.80;;;;;;2245514;61;20369;-64
2022/09/14 07:53:56;0.00;0.00;0.62;0.00;0.00;0.62;2.50;1.90;;;25.00;33.90;;;;;;2245335;61;20389;-66
2022/09/14 07:56:42;0.00;0.00;0.62;0.00;0.00;0.62;2.87;1.20;;;25.00;33.80;;;;;;2245822;61;20378;-63
2022/09/14 07:59:27;0.00;0.00;0.62;0.00;0.00;0.62;3.40;1.40;;;25.00;33.80;;;;;;2245147;61;20421;-63
2022/09/14 08:02:12;0.00;0.00;0.62;0.00;0.00;0.62;2.10;1.10;;;25.10;33.80;;;;;;2245052;61;20432;-63
2022/09/14 08:04:58;0.00;0.00;0.62;0.00;0.00;0.62;2.40;1.20;;;25.10;33.80;;;;;;2245721;61;20574;-63
2022/09/14 08:07:44;0.00;0.00;0.62;0.00;0.00;0.62;3.10;1.97;;;25.10;33.80;;;;;;2243724;61;20361;-64
2022/09/14 08:10:29;0.00;0.00;0.62;0.00;0.00;0.62;1.73;1.30;;;25.10;33.80;;;;;;2247153;61;20472;-65
2022/09/14 08:13:13;0.00;0.00;0.62;0.00;0.00;0.62;1.73;0.90;;;25.20;33.90;;;;;;2249561;61;20376;-66
2022/09/14 08:15:59;0.00;0.00;0.62;0.00;0.00;0.62;3.23;1.27;;;25.20;33.90;;;;;;2248999;61;20631;-65
2022/09/14 08:18:45;0.00;0.00;0.62;0.00;0.00;0.62;4.70;1.63;;;25.20;33.90;;;;;;2249603;61;20356;-63
2022/09/14 08:21:32;0.00;0.00;0.62;0.00;0.00;0.62;3.30;1.70;;;25.20;33.80;;;;;;2249408;61;20497;-63
2022/09/14 08:24:20;0.00;0.00;0.62;0.00;0.00;0.62;2.10;1.43;;;25.20;33.80;;;;;;2277707;58;20736;-63
2022/09/14 08:27:05;0.00;0.00;0.62;0.00;0.00;0.62;6.83;1.30;;;25.30;33.90;;;;;;2249633;61;20428;-64
2022/09/14 08:29:50;0.00;0.00;0.62;0.00;0.00;0.62;3.27;1.50;;;25.30;33.80;;;;;;2248891;61;20356;-64
2022/09/14 08:32:34;0.00;0.00;0.62;0.00;0.00;0.62;4.10;1.87;;;25.30;33.80;;;;;;2249120;61;20408;-67
2022/09/14 08:35:19;0.00;0.00;0.62;0.00;0.00;0.62;4.13;1.47;;;25.30;33.80;;;;;;2249640;61;20447;-65
2022/09/14 08:38:03;0.00;0.00;0.62;0.00;0.00;0.62;2.10;1.10;;;25.30;33.80;;;;;;2248687;61;20591;-65
2022/09/14 08:40:50;0.00;0.00;0.62;0.00;0.00;0.62;2.17;1.40;;;25.40;33.90;;;;;;2249478;61;20453;-65
2022/09/14 08:43:37;0.00;0.00;0.62;0.00;0.00;0.62;3.43;1.70;;;25.40;33.90;;;;;;2249278;61;20768;-65
2022/09/14 08:46:33;0.00;0.00;0.62;0.00;0.00;0.62;2.20;1.10;;;25.40;33.90;;;;;;2249157;61;20434;-66
2022/09/14 08:49:36;0.00;0.00;0.62;0.00;0.00;0.62;4.37;1.60;;;25.40;33.90;;;;;;2249540;61;20401;-66
2022/09/14 08:52:27;0.00;0.00;0.62;0.00;0.00;0.62;2.53;1.37;;;25.40;33.90;;;;;;2248827;61;20428;-65
2022/09/14 08:55:30;0.00;0.00;0.62;0.00;0.00;0.62;5.40;1.80;;;25.40;33.90;;;;;;2249323;61;20364;-65
2022/09/14 08:58:31;0.00;0.00;0.62;0.00;0.00;0.62;1.93;1.33;;;25.40;33.90;;;;;;2249206;61;20412;-65
2022/09/14 09:01:25;0.00;0.00;0.62;0.00;0.00;0.62;3.77;1.80;;;25.50;33.80;;;;;;2249090;61;20469;-67
2022/09/14 09:04:31;0.00;0.00;0.62;0.00;0.00;0.62;2.90;1.70;;;25.50;33.70;;;;;;2249491;61;20449;-65
2022/09/14 09:07:27;0.00;0.00;0.62;0.00;0.00;0.62;2.10;1.40;;;25.50;33.70;;;;;;2248933;61;20369;-65
2022/09/14 09:10:12;0.00;0.00;0.62;0.00;0.00;0.62;3.20;1.87;;;25.50;33.70;;;;;;2249437;61;20396;-65
2022/09/14 09:13:03;0.00;0.00;0.62;0.00;0.00;0.62;3.50;2.23;;;25.50;33.80;;;;;;2249695;61;20399;-69
2022/09/14 09:15:52;0.00;0.00;0.62;0.00;0.00;0.62;2.27;1.37;;;25.50;33.80;;;;;;2249780;61;20397;-65
2022/09/14 09:18:43;0.00;0.00;0.62;0.00;0.00;0.62;2.60;1.50;;;25.50;33.80;;;;;;2250132;61;20364;-65
2022/09/14 09:21:34;0.00;0.00;0.62;0.00;0.00;0.62;2.27;1.30;;;25.50;34.50;;;;;;2249383;61;20352;-66
2022/09/14 09:24:29;0.00;0.00;0.62;0.00;0.00;0.62;3.67;1.80;;;25.60;33.90;;;;;;2495241;53;20413;-64
2022/09/14 09:27:15;0.00;0.00;0.62;0.00;0.00;0.62;3.70;1.80;;;25.60;33.90;;;;;;2246459;61;20360;-66
2022/09/14 09:30:00;0.00;0.00;0.62;0.00;0.00;0.62;2.90;1.40;;;25.60;34.50;;;;;;2245703;61;20401;-66
2022/09/14 09:32:49;0.00;0.00;0.62;0.00;0.00;0.62;3.23;1.30;;;25.60;33.80;;;;;;2245640;61;20418;-69
2022/09/14 09:35:54;0.00;0.00;0.62;0.00;0.00;0.62;3.00;1.63;;;25.70;33.80;;;;;;2246038;61;20381;-66
2022/09/14 09:38:43;0.00;0.00;0.62;0.00;0.00;0.62;3.30;1.90;;;25.60;33.80;;;;;;2245686;61;20797;-66
2022/09/14 09:41:32;0.00;0.00;0.62;0.00;0.00;0.62;2.80;1.67;;;25.70;33.70;;;;;;2245904;61;20401;-67
2022/09/14 09:44:17;0.00;0.00;0.62;0.00;0.00;0.62;3.23;1.73;;;25.70;33.70;;;;;;2245591;61;20374;-64
2022/09/14 09:47:02;0.00;0.00;0.62;0.00;0.00;0.62;2.60;1.40;;;25.70;33.60;;;;;;2246164;61;20453;-68
2022/09/14 09:49:57;0.00;0.00;0.62;0.00;0.00;0.62;2.90;1.53;;;25.70;33.60;;;;;;2246172;61;20392;-63
2022/09/14 09:52:49;0.00;0.00;0.62;0.00;0.00;0.62;7.10;1.33;;;25.70;33.60;;;;;;2245520;61;20865;-66
2022/09/14 09:55:38;0.00;0.00;0.62;0.00;0.00;0.62;2.70;1.60;;;25.80;33.50;;;;;;2245951;61;20370;-67
2022/09/14 09:58:31;0.00;0.00;0.62;0.00;0.00;0.62;1.97;1.13;;;25.70;33.40;;;;;;2245474;61;20431;-69
2022/09/14 10:01:20;0.00;0.00;0.62;0.00;0.00;0.62;2.85;1.30;;;25.80;33.50;;;;;;2245704;61;20605;-68
2022/09/14 10:04:16;0.00;0.00;0.62;0.00;0.00;0.62;2.70;1.73;;;25.80;33.40;;;;;;2246248;61;20608;-65
2022/09/14 10:07:03;0.00;0.00;0.62;0.00;0.00;0.62;1.90;1.13;;;25.80;33.40;;;;;;2245523;61;20418;-66
2022/09/14 10:09:57;0.00;0.00;0.62;0.00;0.00;0.62;2.83;1.40;;;25.80;33.30;;;;;;2246124;61;20393;-66
2022/09/14 10:12:47;0.00;0.00;0.62;0.00;0.00;0.62;2.83;1.47;;;25.80;33.00;;;;;;2245567;61;20398;-66
2022/09/14 10:15:35;0.00;0.00;0.62;0.00;0.00;0.62;3.97;1.33;;;25.80;32.80;;;;;;2245677;61;20439;-64
2022/09/14 10:18:22;0.00;0.00;0.62;0.00;0.00;0.62;2.60;1.43;;;25.80;32.90;;;;;;2245996;61;20396;-68
2022/09/14 10:21:09;0.00;0.00;0.62;0.00;0.00;0.62;3.10;1.40;;;25.80;33.00;;;;;;2245477;61;20369;-64
2022/09/14 10:24:16;0.00;0.00;0.62;0.00;0.00;0.62;3.60;1.33;;;25.80;33.00;;;;;;2246039;61;20651;-65
2022/09/14 10:27:01;0.00;0.00;0.62;0.00;0.00;0.62;3.03;1.10;;;25.80;33.00;;;;;;2245691;61;20412;-66
2022/09/14 10:29:47;0.00;0.00;0.62;0.00;0.00;0.62;2.13;1.10;;;25.80;33.00;;;;;;2245684;61;20454;-64
2022/09/14 10:32:34;0.00;0.00;0.62;0.00;0.00;0.62;5.23;1.77;;;25.80;33.00;;;;;;2245962;61;20442;-64
2022/09/14 10:35:21;0.00;0.00;0.62;0.00;0.00;0.62;3.23;1.40;;;25.80;32.90;;;;;;2246397;61;20376;-66
2022/09/14 10:38:22;0.00;0.00;0.62;0.00;0.00;0.62;1.97;1.20;;;25.90;33.00;;;;;;2249538;61;20469;-66
2022/09/14 10:41:22;0.00;0.00;0.62;0.00;0.00;0.62;2.13;1.37;;;25.80;32.90;;;;;;2249764;61;20416;-67
2022/09/14 10:45:02;0.00;0.00;0.62;0.00;0.00;0.62;2.23;1.00;;;25.80;32.90;;;;;;2249808;61;20365;-65
2022/09/14 10:48:14;0.00;0.00;0.62;0.00;0.00;0.62;1.93;1.13;;;25.80;32.90;;;;;;2249934;61;20404;-65
2022/09/14 10:51:21;0.00;0.00;0.62;0.00;0.00;0.62;3.00;1.50;;;25.90;32.90;;;;;;2243097;61;20372;-67
2022/09/14 10:54:22;0.00;0.00;0.62;0.00;0.00;0.62;4.53;1.57;;;25.90;32.80;;;;;;2249905;61;20833;-65
2022/09/14 10:57:19;0.00;0.00;0.62;0.00;0.00;0.62;2.87;1.20;;;25.90;32.70;;;;;;2249624;61;20368;-65
2022/09/14 11:00:12;0.00;0.00;0.62;0.00;0.00;0.62;3.10;1.40;;;25.90;32.80;;;;;;2250091;61;20372;-67
2022/09/14 11:03:15;0.00;0.00;0.62;0.00;0.00;0.62;2.00;1.03;;;25.90;32.80;;;;;;2249887;61;20443;-67